Seattle, WA

8:34 AM PDT on July 26, 2016 (GMT -0700)
South Lake Union | | Change Station

Elev 78 ft 47.62 °N, 122.34 °W | Updated 51 seconds ago

Overcast
Overcast
62.2 °F
Feels Like 62.2 °F
N
0.6
Wind Variable Wind from West
Gusts 1.9 mph

Today
High -- | Low -- °F
--% Chance of Precip.
Yesterday
High -- | Low -- °F
Precip. -- in
Pressure 30.16 in
Visibility 10.0 miles
Clouds Overcast 900 ft
Dew Point 55 °F
Humidity 78%
Rainfall 0.00 in
Snow Depth Not available.
5:40 AM 8:50 PM
Waning Gibbous, 53% visible
METAR KBFI 261453Z 19004KT 10SM OVC009 16/13 A3016 RMK AO2 SLP213 T01610128 53012
Pressure 30.16 in
Visibility 10.0 miles
Clouds Overcast 900 ft
Dew Point 55 °F
Humidity 78%
Rainfall 0.00 in
Snow Depth Not available.
5:40 AM 8:50 PM
Waning Gibbous, 53% visible
METAR KBFI 261453Z 19004KT 10SM OVC009 16/13 A3016 RMK AO2 SLP213 T01610128 53012

10-Day Weather Forecast

Almanac

Astronomy

Jul. 26, 2016 Rise Set
Actual Time
Civil Twilight
Nautical Twilight
Astronomical Twilight
Moon
Length of Visible Light
Length of Day
Tomorrow will be .
, % of the Moon is Illuminated

Today's Extremes

State Highs State Lows

Community

WunderPhotos

Upload Photos

1,927,615 photos uploaded!

WunderBlog® & News

Nearby

Air Quality

  Air Quality AQ Index Pollutant
Not available.

Snow Depth

Station Depth Elevation

Earthquake Activity

City Distance Mag. Time & Date
Minimum magnitude displayed is 2.5.

Coastal Water Temperatures

Place Temperature

Stations

Nearby Weather Stations

Station Location Temp. Windchill Dew Point Humidity Wind Precip. Elev Updated Type
                   

Watches & Warnings

There are currently no watches in effect.